Aeroporto :
LOGIN :

Iscrizione | Disclaimer

   EN    FR    IT 

 










Sommario :    VFR   VFR Marginale   IFR   IFR Intensivo   IFR Molto Intensivo
Visibilità : 
Base nubi : 
>= 8 km
>= 3000ft
5 / 8 km
1000 / 3000 ft
1500m / 5 km
500 / 1000 ft
800 / 1500m
200 / 500 ft
< 800m
< 200 ft
Simboli :   Temporali  Nebbia  Neve Forte  Precipitazioni Forti  Vento > 20 kt
SIGMETs :   Varie  Temporali  Ghiacco  Turbolenza  Onda orograficha  Ceneri Vulcaniche






- Altitudine del aeroporto : 398 ft
- Codice IATA : JOE


EFJO - Joensuu

ULTIMO METAR :
  • 302350Z AUTO 02004KT CAVOK 06/02 Q1029

METARs OBSOLETI :
  • 302320Z AUTO 03004KT CAVOK 09/02 Q1029
  • 302250Z AUTO 04004KT CAVOK 10/02 Q1029
  • 302220Z AUTO 03004KT 010V070 CAVOK 10/03 Q1029
  • 302150Z AUTO 03004KT 350V050 CAVOK 11/03 Q1029
  • 302120Z AUTO 02004KT CAVOK 11/03 Q1029

Previsioni scadute.



MetMap, La meteo Aeronautica in un colpo d'occhio ! - Copyright ORBIFLY Dicembre 2007 - Disclaimer

ORBIFLY MET'MAP TEAM :

Programmazione e sviluppo : Alexandra Zaïnal
Concezione : Baudouin d'Aumeries
Aiuto per la programmazione : Marc-Olivier Méhu
Supporto tecnico e logistico : Manuel Goepfert
Aiuto per la traduzione : Arnaldo La Scala

Contatto : metmap@orbifly.com




FONTI E CREDITI :

   NOAA